sensor_id;sensor_type;location;lat;lon;timestamp;pressure;altitude;pressure_sealevel;temperature;humidity
58223;BME280;44020;50.890;15.796;2022-08-11T00:04:34;98522.95;;;14.14;64.90
58223;BME280;44020;50.890;15.796;2022-08-11T00:39:47;98522.83;;;13.63;66.19
58223;BME280;44020;50.890;15.796;2022-08-11T00:50:08;98526.39;;;13.63;66.39
58223;BME280;44020;50.890;15.796;2022-08-11T02:03:38;98515.30;;;12.68;67.39
58223;BME280;44020;50.890;15.796;2022-08-11T02:06:25;98515.41;;;12.69;67.46
58223;BME280;44020;50.890;15.796;2022-08-11T02:09:25;98519.10;;;12.64;67.59
58223;BME280;44020;50.890;15.796;2022-08-11T02:12:02;98521.39;;;12.62;67.56
58223;BME280;44020;50.890;15.796;2022-08-11T02:14:58;98523.45;;;12.60;67.55
58223;BME280;44020;50.890;15.796;2022-08-11T02:18:04;98522.25;;;12.57;67.66
58223;BME280;44020;50.890;15.796;2022-08-11T02:20:44;98514.93;;;12.55;67.69
58223;BME280;44020;50.890;15.796;2022-08-11T02:24:02;98512.58;;;12.55;68.03
58223;BME280;44020;50.890;15.796;2022-08-11T02:26:38;98512.14;;;12.54;67.73
58223;BME280;44020;50.890;15.796;2022-08-11T02:39:59;98514.36;;;12.36;67.92
58223;BME280;44020;50.890;15.796;2022-08-11T02:42:39;98519.56;;;12.30;67.76
58223;BME280;44020;50.890;15.796;2022-08-11T02:47:59;98516.64;;;12.19;68.09
58223;BME280;44020;50.890;15.796;2022-08-11T02:53:30;98519.48;;;12.22;68.29
58223;BME280;44020;50.890;15.796;2022-08-11T02:56:16;98524.28;;;12.20;68.25
58223;BME280;44020;50.890;15.796;2022-08-11T02:58:55;98524.02;;;12.18;68.25
58223;BME280;44020;50.890;15.796;2022-08-11T03:01:54;98526.27;;;12.17;68.41
58223;BME280;44020;50.890;15.796;2022-08-11T03:04:47;98529.01;;;12.13;68.42
58223;BME280;44020;50.890;15.796;2022-08-11T03:07:27;98524.86;;;12.11;68.37
58223;BME280;44020;50.890;15.796;2022-08-11T03:10:21;98522.33;;;12.11;68.48
58223;BME280;44020;50.890;15.796;2022-08-11T03:16:12;98514.05;;;12.04;68.22
58223;BME280;44020;50.890;15.796;2022-08-11T03:24:32;98525.02;;;11.92;68.33
58223;BME280;44020;50.890;15.796;2022-08-11T03:30:06;98527.20;;;11.87;68.52
58223;BME280;44020;50.890;15.796;2022-08-11T03:41:59;98530.27;;;11.78;68.86
58223;BME280;44020;50.890;15.796;2022-08-11T03:47:06;98531.23;;;11.77;68.89
58223;BME280;44020;50.890;15.796;2022-08-11T03:56:50;98527.98;;;11.60;68.70
58223;BME280;44020;50.890;15.796;2022-08-11T03:59:16;98524.78;;;11.54;68.79
58223;BME280;44020;50.890;15.796;2022-08-11T04:02:18;98522.67;;;11.54;68.82
58223;BME280;44020;50.890;15.796;2022-08-11T04:13:33;98522.33;;;11.51;69.16
58223;BME280;44020;50.890;15.796;2022-08-11T04:16:28;98522.89;;;11.50;69.11
58223;BME280;44020;50.890;15.796;2022-08-11T04:22:15;98520.13;;;11.49;69.58
58223;BME280;44020;50.890;15.796;2022-08-11T04:33:01;98520.16;;;11.63;70.04
58223;BME280;44020;50.890;15.796;2022-08-11T04:39:33;98524.17;;;11.73;70.68
58223;BME280;44020;50.890;15.796;2022-08-11T04:41:50;98529.56;;;11.78;70.68
58223;BME280;44020;50.890;15.796;2022-08-11T04:53:41;98534.10;;;11.97;71.18
58223;BME280;44020;50.890;15.796;2022-08-11T04:56:31;98527.48;;;12.03;71.54
58223;BME280;44020;50.890;15.796;2022-08-11T04:59:38;98528.21;;;12.09;71.51
58223;BME280;44020;50.890;15.796;2022-08-11T05:08:11;98529.17;;;12.27;72.04
58223;BME280;44020;50.890;15.796;2022-08-11T05:13:11;98527.52;;;12.39;72.26
58223;BME280;44020;50.890;15.796;2022-08-11T05:16:10;98532.97;;;12.46;72.39
58223;BME280;44020;50.890;15.796;2022-08-11T05:18:57;98531.91;;;12.54;72.59
58223;BME280;44020;50.890;15.796;2022-08-11T05:21:50;98535.15;;;12.61;72.86
58223;BME280;44020;50.890;15.796;2022-08-11T05:24:47;98532.57;;;12.68;72.83
58223;BME280;44020;50.890;15.796;2022-08-11T05:27:44;98530.65;;;12.76;72.85
58223;BME280;44020;50.890;15.796;2022-08-11T05:30:35;98531.17;;;12.84;73.02
58223;BME280;44020;50.890;15.796;2022-08-11T05:33:32;98533.39;;;12.91;73.08
58223;BME280;44020;50.890;15.796;2022-08-11T05:39:14;98542.39;;;13.06;73.22
58223;BME280;44020;50.890;15.796;2022-08-11T05:42:01;98544.10;;;13.15;73.33
58223;BME280;44020;50.890;15.796;2022-08-11T05:44:50;98543.28;;;13.21;73.32
58223;BME280;44020;50.890;15.796;2022-08-11T05:47:38;98539.78;;;13.32;73.51
58223;BME280;44020;50.890;15.796;2022-08-11T05:50:26;98543.36;;;13.42;73.55
58223;BME280;44020;50.890;15.796;2022-08-11T05:53:14;98546.24;;;13.52;73.64
58223;BME280;44020;50.890;15.796;2022-08-11T05:56:04;98543.23;;;13.60;73.48
58223;BME280;44020;50.890;15.796;2022-08-11T05:58:50;98542.92;;;13.67;73.52
58223;BME280;44020;50.890;15.796;2022-08-11T06:01:32;98543.12;;;13.74;73.38
58223;BME280;44020;50.890;15.796;2022-08-11T06:04:05;98544.49;;;13.83;73.30
58223;BME280;44020;50.890;15.796;2022-08-11T06:06:46;98546.62;;;13.90;73.17
58223;BME280;44020;50.890;15.796;2022-08-11T06:09:27;98544.38;;;13.97;73.23
58223;BME280;44020;50.890;15.796;2022-08-11T06:11:59;98545.27;;;14.05;73.18
58223;BME280;44020;50.890;15.796;2022-08-11T06:14:27;98548.89;;;14.11;73.21
58223;BME280;44020;50.890;15.796;2022-08-11T06:16:58;98552.89;;;14.18;73.24
58223;BME280;44020;50.890;15.796;2022-08-11T06:19:37;98551.53;;;14.24;73.27
58223;BME280;44020;50.890;15.796;2022-08-11T06:22:09;98546.00;;;14.32;73.29
58223;BME280;44020;50.890;15.796;2022-08-11T06:24:40;98546.05;;;14.38;73.37
58223;BME280;44020;50.890;15.796;2022-08-11T06:27:07;98548.86;;;14.47;73.23
58223;BME280;44020;50.890;15.796;2022-08-11T06:29:36;98552.45;;;14.54;73.25
58223;BME280;44020;50.890;15.796;2022-08-11T06:32:07;98550.67;;;14.61;73.34
58223;BME280;44020;50.890;15.796;2022-08-11T06:37:38;98548.75;;;14.80;73.22
58223;BME280;44020;50.890;15.796;2022-08-11T06:42:47;98540.81;;;14.96;73.27
58223;BME280;44020;50.890;15.796;2022-08-11T06:47:45;98541.58;;;15.14;72.93
58223;BME280;44020;50.890;15.796;2022-08-11T06:50:21;98543.77;;;15.23;72.86
58223;BME280;44020;50.890;15.796;2022-08-11T06:53:08;98544.66;;;15.32;72.79
58223;BME280;44020;50.890;15.796;2022-08-11T06:55:42;98543.37;;;15.42;72.59
58223;BME280;44020;50.890;15.796;2022-08-11T06:58:31;98537.88;;;15.53;72.49
58223;BME280;44020;50.890;15.796;2022-08-11T07:01:56;98535.59;;;15.64;72.31
58223;BME280;44020;50.890;15.796;2022-08-11T07:04:30;98537.58;;;15.78;72.10
58223;BME280;44020;50.890;15.796;2022-08-11T07:12:42;98525.31;;;16.17;71.04
58223;BME280;44020;50.890;15.796;2022-08-11T07:15:31;98525.70;;;16.29;70.67
58223;BME280;44020;50.890;15.796;2022-08-11T07:18:12;98521.64;;;16.41;70.62
58223;BME280;44020;50.890;15.796;2022-08-11T07:21:23;98522.31;;;16.55;70.43
58223;BME280;44020;50.890;15.796;2022-08-11T07:24:15;98523.74;;;16.68;70.31
58223;BME280;44020;50.890;15.796;2022-08-11T07:27:06;98518.64;;;16.82;70.22
58223;BME280;44020;50.890;15.796;2022-08-11T07:29:54;98515.18;;;16.96;70.17
58223;BME280;44020;50.890;15.796;2022-08-11T07:32:28;98513.99;;;17.10;70.08
58223;BME280;44020;50.890;15.796;2022-08-11T07:35:11;98512.33;;;17.25;70.01
58223;BME280;44020;50.890;15.796;2022-08-11T07:37:46;98510.96;;;17.42;69.41
58223;BME280;44020;50.890;15.796;2022-08-11T07:40:23;98508.58;;;17.53;69.03
58223;BME280;44020;50.890;15.796;2022-08-11T07:42:51;98506.16;;;17.66;68.79
58223;BME280;44020;50.890;15.796;2022-08-11T07:45:19;98506.52;;;17.79;68.38
58223;BME280;44020;50.890;15.796;2022-08-11T07:48:08;98506.94;;;17.89;67.71
58223;BME280;44020;50.890;15.796;2022-08-11T07:50:55;98502.83;;;17.98;67.14
58223;BME280;44020;50.890;15.796;2022-08-11T07:53:42;98502.89;;;18.12;67.02
58223;BME280;44020;50.890;15.796;2022-08-11T07:56:10;98508.66;;;18.24;66.51
58223;BME280;44020;50.890;15.796;2022-08-11T07:58:42;98509.15;;;18.37;66.10
58223;BME280;44020;50.890;15.796;2022-08-11T08:01:29;98506.89;;;18.46;65.76
58223;BME280;44020;50.890;15.796;2022-08-11T08:04:17;98504.54;;;18.56;65.57
58223;BME280;44020;50.890;15.796;2022-08-11T08:07:04;98503.91;;;18.67;64.75
58223;BME280;44020;50.890;15.796;2022-08-11T08:09:50;98496.90;;;18.81;64.37
58223;BME280;44020;50.890;15.796;2022-08-11T08:12:39;98503.72;;;18.99;63.82
58223;BME280;44020;50.890;15.796;2022-08-11T08:15:26;98497.72;;;19.09;62.88
58223;BME280;44020;50.890;15.796;2022-08-11T08:18:12;98500.80;;;19.23;62.15
58223;BME280;44020;50.890;15.796;2022-08-11T08:20:48;98502.57;;;19.37;61.15
58223;BME280;44020;50.890;15.796;2022-08-11T08:23:21;98498.23;;;19.47;59.90
58223;BME280;44020;50.890;15.796;2022-08-11T08:25:59;98497.84;;;19.56;59.54
58223;BME280;44020;50.890;15.796;2022-08-11T08:28:28;98497.48;;;19.68;59.28
58223;BME280;44020;50.890;15.796;2022-08-11T08:30:57;98495.97;;;19.76;58.81
58223;BME280;44020;50.890;15.796;2022-08-11T08:33:27;98490.34;;;19.86;58.57
58223;BME280;44020;50.890;15.796;2022-08-11T08:35:57;98492.19;;;19.99;58.16
58223;BME280;44020;50.890;15.796;2022-08-11T08:41:05;98495.41;;;20.14;57.47
58223;BME280;44020;50.890;15.796;2022-08-11T08:43:35;98490.21;;;20.19;57.22
58223;BME280;44020;50.890;15.796;2022-08-11T08:46:06;98489.19;;;20.24;57.10
58223;BME280;44020;50.890;15.796;2022-08-11T08:48:35;98486.38;;;20.32;56.66
58223;BME280;44020;50.890;15.796;2022-08-11T08:51:09;98490.89;;;20.42;56.35
58223;BME280;44020;50.890;15.796;2022-08-11T08:54:04;98487.09;;;20.44;56.21
58223;BME280;44020;50.890;15.796;2022-08-11T08:56:32;98487.85;;;20.47;55.96
58223;BME280;44020;50.890;15.796;2022-08-11T08:59:01;98485.10;;;20.55;55.56
58223;BME280;44020;50.890;15.796;2022-08-11T09:01:35;98487.23;;;20.66;55.68
58223;BME280;44020;50.890;15.796;2022-08-11T09:04:06;98486.21;;;20.75;55.09
58223;BME280;44020;50.890;15.796;2022-08-11T09:06:37;98484.62;;;20.85;54.51
58223;BME280;44020;50.890;15.796;2022-08-11T09:09:06;98481.83;;;20.97;54.29
58223;BME280;44020;50.890;15.796;2022-08-11T09:11:36;98479.41;;;21.10;53.58
58223;BME280;44020;50.890;15.796;2022-08-11T09:14:36;98479.46;;;21.20;53.03
58223;BME280;44020;50.890;15.796;2022-08-11T09:17:24;98484.20;;;21.31;52.98
58223;BME280;44020;50.890;15.796;2022-08-11T09:20:00;98485.84;;;21.37;52.52
58223;BME280;44020;50.890;15.796;2022-08-11T09:22:38;98480.34;;;21.46;52.41
58223;BME280;44020;50.890;15.796;2022-08-11T09:25:27;98483.58;;;21.56;52.59
58223;BME280;44020;50.890;15.796;2022-08-11T09:28:16;98480.86;;;21.63;51.68
58223;BME280;44020;50.890;15.796;2022-08-11T09:30:46;98480.02;;;21.72;52.07
58223;BME280;44020;50.890;15.796;2022-08-11T09:33:15;98480.83;;;21.81;51.67
58223;BME280;44020;50.890;15.796;2022-08-11T09:35:45;98483.45;;;21.89;51.45
58223;BME280;44020;50.890;15.796;2022-08-11T09:38:15;98480.86;;;21.98;50.83
58223;BME280;44020;50.890;15.796;2022-08-11T09:41:03;98483.41;;;22.07;50.86
58223;BME280;44020;50.890;15.796;2022-08-11T09:43:32;98480.21;;;22.13;50.39
58223;BME280;44020;50.890;15.796;2022-08-11T09:46:25;98474.61;;;22.18;50.71
58223;BME280;44020;50.890;15.796;2022-08-11T09:48:57;98473.39;;;22.21;50.80
58223;BME280;44020;50.890;15.796;2022-08-11T09:51:29;98472.04;;;22.20;50.38
58223;BME280;44020;50.890;15.796;2022-08-11T09:54:02;98473.97;;;22.28;50.33
58223;BME280;44020;50.890;15.796;2022-08-11T09:56:32;98470.50;;;22.35;50.19
58223;BME280;44020;50.890;15.796;2022-08-11T09:59:20;98465.95;;;22.37;50.10
58223;BME280;44020;50.890;15.796;2022-08-11T10:01:57;98464.50;;;22.37;49.99
58223;BME280;44020;50.890;15.796;2022-08-11T10:04:34;98466.35;;;22.32;49.99
58223;BME280;44020;50.890;15.796;2022-08-11T10:07:04;98469.08;;;22.10;49.91
58223;BME280;44020;50.890;15.796;2022-08-11T10:09:58;98466.47;;;22.04;49.92
58223;BME280;44020;50.890;15.796;2022-08-11T10:12:33;98456.14;;;22.10;50.12
58223;BME280;44020;50.890;15.796;2022-08-11T10:15:08;98457.93;;;22.20;50.29
58223;BME280;44020;50.890;15.796;2022-08-11T10:17:56;98453.70;;;22.29;50.09
58223;BME280;44020;50.890;15.796;2022-08-11T10:20:44;98445.02;;;22.40;50.37
58223;BME280;44020;50.890;15.796;2022-08-11T10:23:17;98450.88;;;22.44;49.78
58223;BME280;44020;50.890;15.796;2022-08-11T10:26:04;98456.14;;;22.37;49.55
58223;BME280;44020;50.890;15.796;2022-08-11T10:28:52;98456.38;;;22.33;49.34
58223;BME280;44020;50.890;15.796;2022-08-11T10:31:20;98452.25;;;22.39;49.23
58223;BME280;44020;50.890;15.796;2022-08-11T10:34:08;98452.90;;;22.39;48.91
58223;BME280;44020;50.890;15.796;2022-08-11T10:36:41;98455.75;;;22.31;48.93
58223;BME280;44020;50.890;15.796;2022-08-11T10:39:17;98453.99;;;22.33;49.11
58223;BME280;44020;50.890;15.796;2022-08-11T10:41:46;98450.50;;;22.44;49.29
58223;BME280;44020;50.890;15.796;2022-08-11T10:44:41;98443.17;;;22.63;48.79
58223;BME280;44020;50.890;15.796;2022-08-11T10:47:13;98444.75;;;22.82;48.69
58223;BME280;44020;50.890;15.796;2022-08-11T10:50:08;98437.74;;;22.98;48.26
58223;BME280;44020;50.890;15.796;2022-08-11T10:52:57;98438.00;;;23.09;48.33
58223;BME280;44020;50.890;15.796;2022-08-11T10:55:44;98438.09;;;23.10;47.94
58223;BME280;44020;50.890;15.796;2022-08-11T10:58:31;98437.80;;;23.06;47.92
58223;BME280;44020;50.890;15.796;2022-08-11T11:01:20;98438.08;;;23.12;47.71
58223;BME280;44020;50.890;15.796;2022-08-11T11:03:55;98429.02;;;23.20;47.68
58223;BME280;44020;50.890;15.796;2022-08-11T11:09:39;98424.27;;;23.51;47.72
58223;BME280;44020;50.890;15.796;2022-08-11T11:12:24;98426.92;;;23.68;47.41
58223;BME280;44020;50.890;15.796;2022-08-11T11:15:13;98424.69;;;23.80;47.26
58223;BME280;44020;50.890;15.796;2022-08-11T11:18:05;98422.00;;;23.80;46.28
58223;BME280;44020;50.890;15.796;2022-08-11T11:20:38;98420.80;;;23.92;45.99
58223;BME280;44020;50.890;15.796;2022-08-11T11:23:50;98416.00;;;24.10;45.94
58223;BME280;44020;50.890;15.796;2022-08-11T11:37:44;98404.21;;;24.40;45.00
58223;BME280;44020;50.890;15.796;2022-08-11T11:40:14;98399.20;;;24.47;44.31
58223;BME280;44020;50.890;15.796;2022-08-11T11:42:44;98395.71;;;24.56;43.94
58223;BME280;44020;50.890;15.796;2022-08-11T11:45:15;98396.05;;;24.65;43.45
58223;BME280;44020;50.890;15.796;2022-08-11T11:47:43;98388.59;;;24.74;43.26
58223;BME280;44020;50.890;15.796;2022-08-11T11:50:11;98386.88;;;24.88;43.08
58223;BME280;44020;50.890;15.796;2022-08-11T11:52:41;98385.43;;;24.99;42.84
58223;BME280;44020;50.890;15.796;2022-08-11T11:55:10;98380.62;;;25.07;42.24
58223;BME280;44020;50.890;15.796;2022-08-11T11:57:37;98382.32;;;25.18;41.88
58223;BME280;44020;50.890;15.796;2022-08-11T12:00:24;98382.51;;;25.28;40.99
58223;BME280;44020;50.890;15.796;2022-08-11T12:03:12;98379.10;;;25.35;40.87
58223;BME280;44020;50.890;15.796;2022-08-11T12:05:41;98371.82;;;25.46;40.77
58223;BME280;44020;50.890;15.796;2022-08-11T12:08:11;98366.52;;;25.57;40.40
58223;BME280;44020;50.890;15.796;2022-08-11T12:10:48;98360.30;;;25.67;40.86
58223;BME280;44020;50.890;15.796;2022-08-11T12:13:16;98358.11;;;25.79;40.51
58223;BME280;44020;50.890;15.796;2022-08-11T12:16:03;98353.91;;;25.93;40.27
58223;BME280;44020;50.890;15.796;2022-08-11T12:18:34;98352.89;;;25.88;39.98
58223;BME280;44020;50.890;15.796;2022-08-11T12:21:04;98355.55;;;25.85;39.98
58223;BME280;44020;50.890;15.796;2022-08-11T12:23:34;98349.77;;;25.77;40.01
58223;BME280;44020;50.890;15.796;2022-08-11T12:26:20;98348.17;;;25.77;40.45
58223;BME280;44020;50.890;15.796;2022-08-11T12:29:09;98344.29;;;25.82;40.37
58223;BME280;44020;50.890;15.796;2022-08-11T12:31:39;98338.63;;;25.97;40.35
58223;BME280;44020;50.890;15.796;2022-08-11T12:34:09;98332.19;;;26.14;40.00
58223;BME280;44020;50.890;15.796;2022-08-11T12:36:43;98329.09;;;26.28;39.83
58223;BME280;44020;50.890;15.796;2022-08-11T12:39:12;98330.02;;;26.37;39.09
58223;BME280;44020;50.890;15.796;2022-08-11T12:41:45;98332.48;;;26.27;39.01
58223;BME280;44020;50.890;15.796;2022-08-11T12:44:32;98334.92;;;26.07;39.29
58223;BME280;44020;50.890;15.796;2022-08-11T12:47:19;98338.64;;;25.83;39.35
58223;BME280;44020;50.890;15.796;2022-08-11T12:50:01;98339.44;;;25.65;39.38
58223;BME280;44020;50.890;15.796;2022-08-11T12:52:51;98335.75;;;25.40;39.37
58223;BME280;44020;50.890;15.796;2022-08-11T12:55:24;98334.40;;;25.33;39.75
58223;BME280;44020;50.890;15.796;2022-08-11T12:58:30;98327.73;;;25.54;40.39
58223;BME280;44020;50.890;15.796;2022-08-11T13:00:58;98330.30;;;25.74;40.29
58223;BME280;44020;50.890;15.796;2022-08-11T13:03:44;98324.84;;;25.79;39.07
58223;BME280;44020;50.890;15.796;2022-08-11T13:06:30;98318.71;;;25.80;39.42
58223;BME280;44020;50.890;15.796;2022-08-11T13:09:00;98320.11;;;25.98;39.35
58223;BME280;44020;50.890;15.796;2022-08-11T13:11:28;98313.49;;;26.12;39.03
58223;BME280;44020;50.890;15.796;2022-08-11T13:14:15;98313.16;;;26.22;38.86
58223;BME280;44020;50.890;15.796;2022-08-11T13:16:44;98306.20;;;26.35;39.00
58223;BME280;44020;50.890;15.796;2022-08-11T13:19:31;98304.64;;;26.52;38.31
58223;BME280;44020;50.890;15.796;2022-08-11T13:22:01;98300.95;;;26.68;38.36
58223;BME280;44020;50.890;15.796;2022-08-11T13:24:31;98302.42;;;26.86;38.68
58223;BME280;44020;50.890;15.796;2022-08-11T13:27:02;98303.27;;;27.02;38.16
58223;BME280;44020;50.890;15.796;2022-08-11T13:29:30;98302.22;;;27.08;37.69
58223;BME280;44020;50.890;15.796;2022-08-11T13:31:58;98301.57;;;26.84;37.48
58223;BME280;44020;50.890;15.796;2022-08-11T13:34:27;98301.98;;;26.74;37.50
58223;BME280;44020;50.890;15.796;2022-08-11T13:36:57;98297.06;;;26.74;37.37
58223;BME280;44020;50.890;15.796;2022-08-11T13:39:29;98292.41;;;26.82;37.28
58223;BME280;44020;50.890;15.796;2022-08-11T13:41:59;98286.77;;;26.78;37.23
58223;BME280;44020;50.890;15.796;2022-08-11T13:44:29;98285.67;;;26.76;37.50
58223;BME280;44020;50.890;15.796;2022-08-11T13:47:01;98283.89;;;26.79;37.28
58223;BME280;44020;50.890;15.796;2022-08-11T13:49:31;98282.52;;;26.91;36.83
58223;BME280;44020;50.890;15.796;2022-08-11T13:52:02;98283.03;;;27.04;37.01
58223;BME280;44020;50.890;15.796;2022-08-11T13:54:34;98279.14;;;27.11;36.89
58223;BME280;44020;50.890;15.796;2022-08-11T13:57:06;98275.58;;;27.22;36.89
58223;BME280;44020;50.890;15.796;2022-08-11T13:59:34;98268.35;;;27.23;36.44
58223;BME280;44020;50.890;15.796;2022-08-11T14:02:05;98264.91;;;27.28;36.09
58223;BME280;44020;50.890;15.796;2022-08-11T14:04:48;98261.39;;;27.37;35.77
58223;BME280;44020;50.890;15.796;2022-08-11T14:07:21;98256.63;;;27.37;35.67
58223;BME280;44020;50.890;15.796;2022-08-11T14:09:56;98250.87;;;27.38;35.31
58223;BME280;44020;50.890;15.796;2022-08-11T14:12:30;98246.46;;;27.48;35.43
58223;BME280;44020;50.890;15.796;2022-08-11T14:15:22;98246.34;;;27.58;35.23
58223;BME280;44020;50.890;15.796;2022-08-11T14:17:55;98246.19;;;27.65;35.40
58223;BME280;44020;50.890;15.796;2022-08-11T14:20:24;98252.94;;;27.57;35.25
58223;BME280;44020;50.890;15.796;2022-08-11T14:23:13;98256.81;;;27.33;35.03
58223;BME280;44020;50.890;15.796;2022-08-11T14:25:41;98257.90;;;27.09;35.14
58223;BME280;44020;50.890;15.796;2022-08-11T14:28:31;98259.40;;;26.85;35.32
58223;BME280;44020;50.890;15.796;2022-08-11T14:31:02;98250.52;;;26.66;35.28
58223;BME280;44020;50.890;15.796;2022-08-11T14:33:32;98250.91;;;26.70;35.26
58223;BME280;44020;50.890;15.796;2022-08-11T14:36:03;98246.98;;;26.77;35.39
58223;BME280;44020;50.890;15.796;2022-08-11T14:38:33;98244.92;;;26.85;35.38
58223;BME280;44020;50.890;15.796;2022-08-11T14:41:01;98243.39;;;26.99;34.99
58223;BME280;44020;50.890;15.796;2022-08-11T14:43:48;98235.14;;;27.12;34.85
58223;BME280;44020;50.890;15.796;2022-08-11T14:46:35;98233.09;;;27.19;34.50
58223;BME280;44020;50.890;15.796;2022-08-11T14:49:23;98232.59;;;27.11;34.55
58223;BME280;44020;50.890;15.796;2022-08-11T14:51:52;98238.12;;;27.15;34.46
58223;BME280;44020;50.890;15.796;2022-08-11T14:54:25;98231.71;;;27.14;34.21
58223;BME280;44020;50.890;15.796;2022-08-11T14:57:13;98233.66;;;27.26;34.31
58223;BME280;44020;50.890;15.796;2022-08-11T14:59:41;98229.66;;;27.51;34.03
58223;BME280;44020;50.890;15.796;2022-08-11T15:02:10;98229.22;;;27.82;34.12
58223;BME280;44020;50.890;15.796;2022-08-11T15:04:57;98233.13;;;28.57;33.78
58223;BME280;44020;50.890;15.796;2022-08-11T15:07:27;98229.64;;;30.15;32.35
58223;BME280;44020;50.890;15.796;2022-08-11T15:10:06;98226.45;;;31.93;30.24
58223;BME280;44020;50.890;15.796;2022-08-11T15:12:36;98221.89;;;32.33;29.04
58223;BME280;44020;50.890;15.796;2022-08-11T15:15:06;98222.02;;;31.29;28.53
58223;BME280;44020;50.890;15.796;2022-08-11T15:17:56;98220.08;;;30.16;29.07
58223;BME280;44020;50.890;15.796;2022-08-11T15:20:26;98221.38;;;29.37;29.87
58223;BME280;44020;50.890;15.796;2022-08-11T15:23:13;98220.10;;;28.93;30.81
58223;BME280;44020;50.890;15.796;2022-08-11T15:26:12;98220.45;;;28.83;31.10
58223;BME280;44020;50.890;15.796;2022-08-11T15:28:47;98217.08;;;28.79;31.26
58223;BME280;44020;50.890;15.796;2022-08-11T15:31:34;98214.67;;;28.74;31.01
58223;BME280;44020;50.890;15.796;2022-08-11T15:34:26;98213.08;;;28.61;30.57
58223;BME280;44020;50.890;15.796;2022-08-11T15:37:16;98211.29;;;28.50;30.45
58223;BME280;44020;50.890;15.796;2022-08-11T15:40:17;98215.81;;;28.38;30.55
58223;BME280;44020;50.890;15.796;2022-08-11T15:43:40;98217.92;;;28.12;30.58
58223;BME280;44020;50.890;15.796;2022-08-11T15:46:30;98216.34;;;27.60;30.63
58223;BME280;44020;50.890;15.796;2022-08-11T15:49:22;98214.48;;;27.29;30.98
58223;BME280;44020;50.890;15.796;2022-08-11T15:54:29;98211.64;;;27.32;31.18
58223;BME280;44020;50.890;15.796;2022-08-11T15:56:59;98211.64;;;27.43;31.22
58223;BME280;44020;50.890;15.796;2022-08-11T15:59:30;98211.37;;;27.58;31.15
58223;BME280;44020;50.890;15.796;2022-08-11T16:02:19;98208.77;;;27.90;30.96
58223;BME280;44020;50.890;15.796;2022-08-11T16:05:12;98203.54;;;29.36;30.50
58223;BME280;44020;50.890;15.796;2022-08-11T16:07:42;98202.86;;;31.96;27.89
58223;BME280;44020;50.890;15.796;2022-08-11T16:10:16;98198.29;;;34.50;25.45
58223;BME280;44020;50.890;15.796;2022-08-11T16:13:00;98198.30;;;36.44;23.56
58223;BME280;44020;50.890;15.796;2022-08-11T16:15:38;98199.25;;;38.11;22.43
58223;BME280;44020;50.890;15.796;2022-08-11T16:18:28;98199.42;;;39.65;21.03
58223;BME280;44020;50.890;15.796;2022-08-11T16:21:13;98197.71;;;40.58;19.86
58223;BME280;44020;50.890;15.796;2022-08-11T16:23:44;98202.77;;;40.99;18.73
58223;BME280;44020;50.890;15.796;2022-08-11T16:26:13;98204.15;;;41.43;18.81
58223;BME280;44020;50.890;15.796;2022-08-11T16:28:44;98200.45;;;42.06;19.07
58223;BME280;44020;50.890;15.796;2022-08-11T16:31:13;98197.52;;;42.50;17.84
58223;BME280;44020;50.890;15.796;2022-08-11T16:33:42;98198.23;;;42.82;17.70
58223;BME280;44020;50.890;15.796;2022-08-11T16:36:10;98199.80;;;43.21;17.22
58223;BME280;44020;50.890;15.796;2022-08-11T16:38:58;98195.77;;;43.37;16.32
58223;BME280;44020;50.890;15.796;2022-08-11T16:41:30;98194.14;;;43.09;16.50
58223;BME280;44020;50.890;15.796;2022-08-11T16:44:18;98194.33;;;43.23;16.64
58223;BME280;44020;50.890;15.796;2022-08-11T16:47:09;98201.41;;;42.07;16.62
58223;BME280;44020;50.890;15.796;2022-08-11T16:49:43;98205.02;;;40.03;17.58
58223;BME280;44020;50.890;15.796;2022-08-11T16:52:12;98203.21;;;38.05;18.98
58223;BME280;44020;50.890;15.796;2022-08-11T16:54:41;98199.39;;;36.49;19.81
58223;BME280;44020;50.890;15.796;2022-08-11T16:57:19;98200.33;;;35.07;20.80
58223;BME280;44020;50.890;15.796;2022-08-11T17:00:07;98201.29;;;33.84;22.13
58223;BME280;44020;50.890;15.796;2022-08-11T17:02:42;98200.96;;;32.98;22.85
58223;BME280;44020;50.890;15.796;2022-08-11T17:05:32;98205.36;;;32.17;23.47
58223;BME280;44020;50.890;15.796;2022-08-11T17:08:38;98195.48;;;31.51;24.21
58223;BME280;44020;50.890;15.796;2022-08-11T17:11:30;98197.02;;;30.93;24.68
58223;BME280;44020;50.890;15.796;2022-08-11T17:14:24;98196.02;;;30.45;25.48
58223;BME280;44020;50.890;15.796;2022-08-11T17:16:53;98192.42;;;30.02;26.13
58223;BME280;44020;50.890;15.796;2022-08-11T17:19:24;98193.45;;;29.67;26.45
58223;BME280;44020;50.890;15.796;2022-08-11T17:21:56;98194.42;;;29.38;26.97
58223;BME280;44020;50.890;15.796;2022-08-11T17:24:45;98195.34;;;29.08;27.24
58223;BME280;44020;50.890;15.796;2022-08-11T17:27:15;98194.20;;;28.82;27.70
58223;BME280;44020;50.890;15.796;2022-08-11T17:29:53;98193.10;;;28.58;27.94
58223;BME280;44020;50.890;15.796;2022-08-11T17:32:28;98197.67;;;28.28;28.44
58223;BME280;44020;50.890;15.796;2022-08-11T17:35:18;98196.41;;;28.03;29.00
58223;BME280;44020;50.890;15.796;2022-08-11T17:38:13;98192.60;;;27.74;29.44
58223;BME280;44020;50.890;15.796;2022-08-11T17:40:47;98192.46;;;27.52;29.74
58223;BME280;44020;50.890;15.796;2022-08-11T17:43:33;98196.59;;;27.31;30.06
58223;BME280;44020;50.890;15.796;2022-08-11T17:46:20;98195.71;;;27.06;30.56
58223;BME280;44020;50.890;15.796;2022-08-11T17:49:08;98194.10;;;26.91;31.26
58223;BME280;44020;50.890;15.796;2022-08-11T17:51:42;98190.61;;;26.74;31.84
58223;BME280;44020;50.890;15.796;2022-08-11T17:54:30;98194.08;;;26.56;32.29